Current | Forecast
Updated: 9:30 PM MSK on April 20, 2018
Observed at Arhangel'sk, Russia
Temperature 25°F
Humidity 69%
Dew Point 16°F
Wind ENE at 2 mph
Pressure 29.89 in (Steady)
Conditions Scattered Clouds
Visibility 6.2 miles
UV 0 out of 16
Clouds Scattered Clouds (SCT) : 3000 ft
Yesterday's Maximum 39°F
Yesterday's Minimum 28°F approx.
Yesterday's Heating Degree Days 31 approx.
Sunrise4:27 AM MSK
Sunset8:07 PM MSK
Moon Rise6:48 AM MSK
Moon Set12:47 AM MSK
Moon PhaseMoon Phase
Waxing Crescent
Raw METARMETAR ULAA 201830Z 06001MPS 9999 SCT030 M04/M09 Q1012 R26/CLRD70 NOSIG RMK QFE757/1010


Monday
. High: 57° F.
Tuesday
. High: 44° F.
Wednesday
. High: 46° F.
Thursday
. High: 51° F.
Friday
. High: 60° F.
Saturday
. High: 64° F.
Sunday
. High: 57° F.
Monday
. High: 53° F.

Units: English | Metric

Find the Weather for any City, State or Zipcode, or Country:

U.S. State List | Severe Weather | Tropical Storms | Ski Conditions
United States | Canada | Central America | South America | Asia | Europe | Australia | Africa | Islands

Weather Underground

© Copyright 2018
The Weather Company, LLC